Аэропорт
Международный аэропорт Лунцзя (ZYCC)

 ZYCC / CGQ

China
CN-22
Лунцзя
 43.99620, 125.68500  / 706 ft

 ZYCC 201600Z 18003MPS 9999 OVC030 M02/M12 Q1027 NOSIG
 TAF ZYCC 200726Z 2012/2112 19004MPS 6000 BKN023 TXM02/2106Z TNM10/2112Z BECMG 2018/2019 1400 -SN BR TEMPO 2102/2108 0600 SN FZFG

2020 © VATRUS division (Privacy Policy)